Terminal Aerodrome Forecast
Issued by NWS Memphis, TN

Home | Current Version | Previous Version | Text Only | Print | Product List | Glossary On
Versions: 1 2 3 4 5 6 7 8 9 10 11 12 13 14
000
FTUS44 KMEG 202329
TAFMKL
TAF
KMKL 202329Z 2100/2124 17006KT P6SM VCSH BKN035
     FM210300 18008KT P6SM BKN035
     FM211200 18009KT P6SM OVC015
     FM212200 19011KT P6SM SCT020 BKN060=

USA.gov is the U.S. government's official web portal to all federal, state and local government web resources and services.